sensor_id;sensor_type;location;lat;lon;timestamp;pressure;altitude;pressure_sealevel;temperature;humidity
59545;BME280;45368;55.002;-1.592;2023-02-19T00:02:06;101050.45;;;4.60;75.35
59545;BME280;45368;55.002;-1.592;2023-02-19T00:04:33;101051.06;;;5.56;71.37
59545;BME280;45368;55.002;-1.592;2023-02-19T00:07:00;101056.10;;;5.85;71.00
59545;BME280;45368;55.002;-1.592;2023-02-19T00:09:27;101061.04;;;5.71;71.60
59545;BME280;45368;55.002;-1.592;2023-02-19T00:11:54;101062.32;;;6.03;69.80
59545;BME280;45368;55.002;-1.592;2023-02-19T00:14:21;101066.15;;;5.22;71.46
59545;BME280;45368;55.002;-1.592;2023-02-19T00:16:48;101076.24;;;4.96;73.24
59545;BME280;45368;55.002;-1.592;2023-02-19T00:19:18;101083.31;;;4.90;72.51
59545;BME280;45368;55.002;-1.592;2023-02-19T00:21:45;101088.36;;;5.49;70.86
59545;BME280;45368;55.002;-1.592;2023-02-19T00:24:13;101088.23;;;5.43;71.83
59545;BME280;45368;55.002;-1.592;2023-02-19T00:26:44;101089.20;;;5.86;71.26
59545;BME280;45368;55.002;-1.592;2023-02-19T00:29:13;101088.88;;;4.73;72.73
59545;BME280;45368;55.002;-1.592;2023-02-19T00:31:41;101094.85;;;4.96;73.02
59545;BME280;45368;55.002;-1.592;2023-02-19T00:34:09;101100.08;;;4.39;74.36
59545;BME280;45368;55.002;-1.592;2023-02-19T00:36:39;101097.46;;;5.94;71.50
59545;BME280;45368;55.002;-1.592;2023-02-19T00:39:09;101101.47;;;5.92;70.77
59545;BME280;45368;55.002;-1.592;2023-02-19T00:41:37;101107.00;;;5.77;70.22
59545;BME280;45368;55.002;-1.592;2023-02-19T00:44:06;101123.25;;;6.32;69.10
59545;BME280;45368;55.002;-1.592;2023-02-19T00:46:36;101141.54;;;3.97;75.21
59545;BME280;45368;55.002;-1.592;2023-02-19T00:49:05;101146.97;;;4.53;74.01
59545;BME280;45368;55.002;-1.592;2023-02-19T00:51:35;101147.15;;;4.63;73.41
59545;BME280;45368;55.002;-1.592;2023-02-19T00:54:02;101147.25;;;5.36;72.22
59545;BME280;45368;55.002;-1.592;2023-02-19T00:56:29;101156.02;;;5.01;72.41
59545;BME280;45368;55.002;-1.592;2023-02-19T00:58:57;101172.57;;;3.61;76.45
59545;BME280;45368;55.002;-1.592;2023-02-19T01:01:25;101179.48;;;4.17;75.69
59545;BME280;45368;55.002;-1.592;2023-02-19T01:03:53;101186.38;;;3.79;75.31
59545;BME280;45368;55.002;-1.592;2023-02-19T01:06:20;101197.52;;;3.37;77.43
59545;BME280;45368;55.002;-1.592;2023-02-19T01:08:48;101194.22;;;4.25;74.64
59545;BME280;45368;55.002;-1.592;2023-02-19T01:11:16;101196.89;;;4.42;73.50
59545;BME280;45368;55.002;-1.592;2023-02-19T01:13:49;101207.00;;;4.56;73.17
59545;BME280;45368;55.002;-1.592;2023-02-19T01:16:18;101212.02;;;5.47;71.08
59545;BME280;45368;55.002;-1.592;2023-02-19T01:18:47;101217.62;;;5.69;69.33
59545;BME280;45368;55.002;-1.592;2023-02-19T01:21:17;101228.71;;;6.18;68.27
59545;BME280;45368;55.002;-1.592;2023-02-19T01:23:46;101228.58;;;6.49;65.67
59545;BME280;45368;55.002;-1.592;2023-02-19T01:26:21;101231.70;;;5.81;67.66
59545;BME280;45368;55.002;-1.592;2023-02-19T01:28:49;101237.51;;;5.40;69.42
59545;BME280;45368;55.002;-1.592;2023-02-19T01:31:18;101239.20;;;6.00;67.97
59545;BME280;45368;55.002;-1.592;2023-02-19T01:33:46;101243.95;;;5.63;67.35
59545;BME280;45368;55.002;-1.592;2023-02-19T01:36:15;101250.81;;;5.33;68.98
59545;BME280;45368;55.002;-1.592;2023-02-19T01:38:42;101247.89;;;6.45;66.51
59545;BME280;45368;55.002;-1.592;2023-02-19T01:41:13;101251.62;;;7.08;63.82
59545;BME280;45368;55.002;-1.592;2023-02-19T01:44:02;101254.66;;;6.82;64.53
59545;BME280;45368;55.002;-1.592;2023-02-19T01:46:31;101260.69;;;6.57;65.06
59545;BME280;45368;55.002;-1.592;2023-02-19T01:49:02;101262.29;;;7.50;62.56
59545;BME280;45368;55.002;-1.592;2023-02-19T01:51:32;101269.30;;;6.48;64.41
59545;BME280;45368;55.002;-1.592;2023-02-19T01:54:07;101276.78;;;7.59;62.66
59545;BME280;45368;55.002;-1.592;2023-02-19T01:56:37;101279.79;;;7.59;61.43
59545;BME280;45368;55.002;-1.592;2023-02-19T01:59:06;101289.34;;;6.24;64.81
59545;BME280;45368;55.002;-1.592;2023-02-19T02:01:34;101298.40;;;6.57;64.72
59545;BME280;45368;55.002;-1.592;2023-02-19T02:04:01;101313.70;;;5.16;68.61
59545;BME280;45368;55.002;-1.592;2023-02-19T02:06:32;101313.69;;;5.27;68.35
59545;BME280;45368;55.002;-1.592;2023-02-19T02:09:01;101310.52;;;5.87;66.83
59545;BME280;45368;55.002;-1.592;2023-02-19T02:11:28;101324.68;;;5.51;67.83
59545;BME280;45368;55.002;-1.592;2023-02-19T02:13:57;101329.16;;;4.83;71.01
59545;BME280;45368;55.002;-1.592;2023-02-19T02:16:30;101338.30;;;4.85;72.02
59545;BME280;45368;55.002;-1.592;2023-02-19T02:19:06;101339.24;;;5.25;71.32
59545;BME280;45368;55.002;-1.592;2023-02-19T02:22:00;101343.05;;;4.13;72.54
59545;BME280;45368;55.002;-1.592;2023-02-19T02:24:45;101337.92;;;6.00;68.51
59545;BME280;45368;55.002;-1.592;2023-02-19T02:27:28;101342.51;;;6.14;67.39
59545;BME280;45368;55.002;-1.592;2023-02-19T02:30:38;101350.25;;;5.68;67.59
59545;BME280;45368;55.002;-1.592;2023-02-19T02:33:23;101349.96;;;5.15;69.32
59545;BME280;45368;55.002;-1.592;2023-02-19T02:35:56;101353.62;;;6.12;66.61
59545;BME280;45368;55.002;-1.592;2023-02-19T02:38:27;101358.82;;;6.31;66.01
59545;BME280;45368;55.002;-1.592;2023-02-19T02:40:56;101366.42;;;6.33;65.91
59545;BME280;45368;55.002;-1.592;2023-02-19T02:43:24;101379.95;;;5.39;67.12
59545;BME280;45368;55.002;-1.592;2023-02-19T02:45:51;101388.41;;;4.71;69.65
59545;BME280;45368;55.002;-1.592;2023-02-19T02:48:24;101395.19;;;4.70;70.30
59545;BME280;45368;55.002;-1.592;2023-02-19T02:50:55;101395.13;;;4.15;72.64
59545;BME280;45368;55.002;-1.592;2023-02-19T02:53:28;101391.36;;;4.98;69.91
59545;BME280;45368;55.002;-1.592;2023-02-19T02:55:59;101399.39;;;4.14;72.31
59545;BME280;45368;55.002;-1.592;2023-02-19T02:58:27;101399.42;;;4.83;70.92
59545;BME280;45368;55.002;-1.592;2023-02-19T03:01:00;101397.37;;;5.78;67.66
59545;BME280;45368;55.002;-1.592;2023-02-19T03:03:30;101397.69;;;6.36;65.41
59545;BME280;45368;55.002;-1.592;2023-02-19T03:06:02;101407.44;;;5.95;66.92
59545;BME280;45368;55.002;-1.592;2023-02-19T03:08:32;101414.95;;;5.62;67.55
59545;BME280;45368;55.002;-1.592;2023-02-19T03:11:05;101421.34;;;5.90;66.21
59545;BME280;45368;55.002;-1.592;2023-02-19T03:13:35;101425.96;;;6.16;65.39
59545;BME280;45368;55.002;-1.592;2023-02-19T03:16:07;101426.24;;;6.87;63.86
59545;BME280;45368;55.002;-1.592;2023-02-19T03:18:36;101430.21;;;6.38;64.54
59545;BME280;45368;55.002;-1.592;2023-02-19T03:21:08;101434.38;;;6.62;64.12
59545;BME280;45368;55.002;-1.592;2023-02-19T03:23:36;101430.80;;;6.26;65.30
59545;BME280;45368;55.002;-1.592;2023-02-19T03:26:04;101428.92;;;5.68;66.33
59545;BME280;45368;55.002;-1.592;2023-02-19T03:28:33;101431.33;;;5.88;67.13
59545;BME280;45368;55.002;-1.592;2023-02-19T03:31:04;101429.27;;;5.87;66.73
59545;BME280;45368;55.002;-1.592;2023-02-19T03:33:32;101431.88;;;5.58;68.22
59545;BME280;45368;55.002;-1.592;2023-02-19T03:36:02;101420.98;;;5.69;67.85
59545;BME280;45368;55.002;-1.592;2023-02-19T03:38:36;101426.16;;;5.48;68.32
59545;BME280;45368;55.002;-1.592;2023-02-19T03:41:10;101436.47;;;5.09;69.64
59545;BME280;45368;55.002;-1.592;2023-02-19T03:43:49;101442.66;;;4.62;71.64
59545;BME280;45368;55.002;-1.592;2023-02-19T03:46:22;101435.28;;;6.11;66.69
59545;BME280;45368;55.002;-1.592;2023-02-19T03:48:54;101434.86;;;6.95;63.81
59545;BME280;45368;55.002;-1.592;2023-02-19T03:51:29;101443.61;;;6.91;63.21
59545;BME280;45368;55.002;-1.592;2023-02-19T03:54:09;101439.08;;;7.55;62.03
59545;BME280;45368;55.002;-1.592;2023-02-19T03:56:46;101441.37;;;7.64;61.51
59545;BME280;45368;55.002;-1.592;2023-02-19T03:59:19;101446.55;;;7.26;61.51
59545;BME280;45368;55.002;-1.592;2023-02-19T04:01:54;101455.08;;;6.49;63.71
59545;BME280;45368;55.002;-1.592;2023-02-19T04:04:26;101456.71;;;6.58;63.96
59545;BME280;45368;55.002;-1.592;2023-02-19T04:06:57;101449.44;;;6.90;62.18
59545;BME280;45368;55.002;-1.592;2023-02-19T04:09:28;101455.40;;;6.29;63.82
59545;BME280;45368;55.002;-1.592;2023-02-19T04:11:57;101452.34;;;6.04;63.55
59545;BME280;45368;55.002;-1.592;2023-02-19T04:14:29;101453.83;;;6.43;62.92
59545;BME280;45368;55.002;-1.592;2023-02-19T04:17:00;101462.10;;;5.93;63.84
59545;BME280;45368;55.002;-1.592;2023-02-19T04:19:31;101477.37;;;4.82;65.89
59545;BME280;45368;55.002;-1.592;2023-02-19T04:22:04;101472.74;;;6.38;63.52
59545;BME280;45368;55.002;-1.592;2023-02-19T04:24:35;101478.10;;;6.73;62.46
59545;BME280;45368;55.002;-1.592;2023-02-19T04:27:04;101482.53;;;6.42;63.14
59545;BME280;45368;55.002;-1.592;2023-02-19T04:29:32;101479.10;;;7.08;61.38
59545;BME280;45368;55.002;-1.592;2023-02-19T04:31:59;101481.63;;;7.48;60.17
59545;BME280;45368;55.002;-1.592;2023-02-19T04:34:26;101487.65;;;7.28;60.76
59545;BME280;45368;55.002;-1.592;2023-02-19T04:36:53;101479.56;;;7.55;60.53
59545;BME280;45368;55.002;-1.592;2023-02-19T04:39:21;101473.74;;;7.50;60.55
59545;BME280;45368;55.002;-1.592;2023-02-19T04:41:48;101478.08;;;7.10;59.94
59545;BME280;45368;55.002;-1.592;2023-02-19T04:44:15;101488.93;;;6.98;60.97
59545;BME280;45368;55.002;-1.592;2023-02-19T04:46:42;101488.61;;;6.14;62.41
59545;BME280;45368;55.002;-1.592;2023-02-19T04:49:09;101498.01;;;6.40;62.97
59545;BME280;45368;55.002;-1.592;2023-02-19T04:51:37;101505.67;;;5.78;63.61
59545;BME280;45368;55.002;-1.592;2023-02-19T04:54:05;101509.43;;;5.66;63.49
59545;BME280;45368;55.002;-1.592;2023-02-19T04:56:32;101507.15;;;6.11;62.59
59545;BME280;45368;55.002;-1.592;2023-02-19T04:58:59;101513.83;;;5.02;64.85
59545;BME280;45368;55.002;-1.592;2023-02-19T05:01:26;101516.85;;;5.49;64.30
59545;BME280;45368;55.002;-1.592;2023-02-19T05:03:53;101519.71;;;4.79;65.84
59545;BME280;45368;55.002;-1.592;2023-02-19T05:06:19;101528.94;;;5.86;63.33
59545;BME280;45368;55.002;-1.592;2023-02-19T05:08:46;101534.46;;;5.99;62.01
59545;BME280;45368;55.002;-1.592;2023-02-19T05:11:13;101537.89;;;6.52;61.85
59545;BME280;45368;55.002;-1.592;2023-02-19T05:13:41;101543.56;;;6.80;60.59
59545;BME280;45368;55.002;-1.592;2023-02-19T05:16:13;101558.08;;;6.91;60.37
59545;BME280;45368;55.002;-1.592;2023-02-19T05:18:40;101552.41;;;7.69;58.27
59545;BME280;45368;55.002;-1.592;2023-02-19T05:21:08;101555.07;;;7.23;58.54
59545;BME280;45368;55.002;-1.592;2023-02-19T05:23:36;101560.40;;;7.83;56.90
59545;BME280;45368;55.002;-1.592;2023-02-19T05:26:05;101552.58;;;7.21;57.71
59545;BME280;45368;55.002;-1.592;2023-02-19T05:28:37;101544.31;;;7.90;56.81
59545;BME280;45368;55.002;-1.592;2023-02-19T05:31:05;101546.79;;;7.64;56.66
59545;BME280;45368;55.002;-1.592;2023-02-19T05:33:34;101545.74;;;7.27;57.27
59545;BME280;45368;55.002;-1.592;2023-02-19T05:36:05;101536.38;;;7.93;56.20
59545;BME280;45368;55.002;-1.592;2023-02-19T05:38:34;101535.14;;;7.15;57.82
59545;BME280;45368;55.002;-1.592;2023-02-19T05:41:10;101532.52;;;8.21;55.57
59545;BME280;45368;55.002;-1.592;2023-02-19T05:43:39;101527.34;;;6.53;59.28
59545;BME280;45368;55.002;-1.592;2023-02-19T05:46:08;101519.27;;;7.38;58.02
59545;BME280;45368;55.002;-1.592;2023-02-19T05:48:35;101517.72;;;7.33;56.80
59545;BME280;45368;55.002;-1.592;2023-02-19T05:51:05;101518.37;;;7.09;57.46
59545;BME280;45368;55.002;-1.592;2023-02-19T05:53:33;101525.21;;;8.15;55.52
59545;BME280;45368;55.002;-1.592;2023-02-19T05:56:01;101521.88;;;8.51;54.59
59545;BME280;45368;55.002;-1.592;2023-02-19T05:58:28;101523.07;;;8.49;54.16
59545;BME280;45368;55.002;-1.592;2023-02-19T06:00:56;101524.98;;;8.22;54.05
59545;BME280;45368;55.002;-1.592;2023-02-19T06:03:24;101516.66;;;7.81;55.75
59545;BME280;45368;55.002;-1.592;2023-02-19T06:05:51;101512.83;;;6.73;56.67
59545;BME280;45368;55.002;-1.592;2023-02-19T06:08:18;101514.05;;;6.78;57.55
59545;BME280;45368;55.002;-1.592;2023-02-19T06:10:45;101516.87;;;7.15;57.43
59545;BME280;45368;55.002;-1.592;2023-02-19T06:13:12;101510.01;;;6.21;59.69
59545;BME280;45368;55.002;-1.592;2023-02-19T06:15:39;101492.40;;;5.64;60.93
59545;BME280;45368;55.002;-1.592;2023-02-19T06:18:06;101487.73;;;6.04;59.80
59545;BME280;45368;55.002;-1.592;2023-02-19T06:20:33;101489.02;;;6.42;58.35
59545;BME280;45368;55.002;-1.592;2023-02-19T06:23:01;101490.50;;;7.02;57.91
59545;BME280;45368;55.002;-1.592;2023-02-19T06:25:28;101492.27;;;6.82;58.26
59545;BME280;45368;55.002;-1.592;2023-02-19T06:27:55;101493.32;;;5.93;60.07
59545;BME280;45368;55.002;-1.592;2023-02-19T06:30:22;101496.20;;;6.27;59.71
59545;BME280;45368;55.002;-1.592;2023-02-19T06:32:51;101497.12;;;7.06;58.21
59545;BME280;45368;55.002;-1.592;2023-02-19T06:35:18;101491.21;;;6.64;58.47
59545;BME280;45368;55.002;-1.592;2023-02-19T06:37:46;101499.72;;;6.58;58.67
59545;BME280;45368;55.002;-1.592;2023-02-19T06:40:13;101503.68;;;6.71;58.18
59545;BME280;45368;55.002;-1.592;2023-02-19T06:42:41;101516.18;;;6.55;58.56
59545;BME280;45368;55.002;-1.592;2023-02-19T06:45:08;101524.80;;;7.10;57.16
59545;BME280;45368;55.002;-1.592;2023-02-19T06:47:36;101529.25;;;6.06;59.61
59545;BME280;45368;55.002;-1.592;2023-02-19T06:50:03;101540.23;;;6.27;59.57
59545;BME280;45368;55.002;-1.592;2023-02-19T06:52:30;101537.53;;;5.94;60.00
59545;BME280;45368;55.002;-1.592;2023-02-19T06:54:57;101543.91;;;5.71;61.33
59545;BME280;45368;55.002;-1.592;2023-02-19T06:57:24;101552.22;;;5.15;62.55
59545;BME280;45368;55.002;-1.592;2023-02-19T06:59:51;101557.67;;;5.26;63.58
59545;BME280;45368;55.002;-1.592;2023-02-19T07:02:18;101559.52;;;5.19;62.20
59545;BME280;45368;55.002;-1.592;2023-02-19T07:04:45;101558.10;;;5.21;63.30
59545;BME280;45368;55.002;-1.592;2023-02-19T07:07:12;101548.78;;;4.99;63.41
59545;BME280;45368;55.002;-1.592;2023-02-19T07:09:39;101557.47;;;4.53;64.09
59545;BME280;45368;55.002;-1.592;2023-02-19T07:12:06;101551.11;;;5.40;62.71
59545;BME280;45368;55.002;-1.592;2023-02-19T07:14:34;101550.83;;;5.23;61.77
59545;BME280;45368;55.002;-1.592;2023-02-19T07:17:01;101556.84;;;5.42;61.92
59545;BME280;45368;55.002;-1.592;2023-02-19T07:19:28;101559.88;;;4.01;64.96
59545;BME280;45368;55.002;-1.592;2023-02-19T07:21:56;101566.87;;;5.13;61.93
59545;BME280;45368;55.002;-1.592;2023-02-19T07:24:23;101569.27;;;4.73;63.39
59545;BME280;45368;55.002;-1.592;2023-02-19T07:26:50;101577.68;;;4.69;62.57
59545;BME280;45368;55.002;-1.592;2023-02-19T07:29:17;101581.43;;;4.53;63.63
59545;BME280;45368;55.002;-1.592;2023-02-19T07:31:45;101576.57;;;4.25;64.62
59545;BME280;45368;55.002;-1.592;2023-02-19T07:34:12;101580.04;;;4.75;63.53
59545;BME280;45368;55.002;-1.592;2023-02-19T07:36:39;101586.52;;;4.45;64.22
59545;BME280;45368;55.002;-1.592;2023-02-19T07:39:06;101577.74;;;4.71;63.48
59545;BME280;45368;55.002;-1.592;2023-02-19T07:41:33;101567.26;;;5.13;62.21
59545;BME280;45368;55.002;-1.592;2023-02-19T07:44:00;101563.99;;;4.86;62.39
59545;BME280;45368;55.002;-1.592;2023-02-19T07:46:27;101557.30;;;5.47;61.52
59545;BME280;45368;55.002;-1.592;2023-02-19T07:48:53;101556.13;;;5.15;61.61
59545;BME280;45368;55.002;-1.592;2023-02-19T07:51:21;101555.04;;;5.44;60.39
59545;BME280;45368;55.002;-1.592;2023-02-19T07:53:49;101554.72;;;5.39;60.62
59545;BME280;45368;55.002;-1.592;2023-02-19T07:56:17;101550.68;;;5.51;60.98
59545;BME280;45368;55.002;-1.592;2023-02-19T07:58:45;101546.68;;;5.95;59.51
59545;BME280;45368;55.002;-1.592;2023-02-19T08:01:14;101555.86;;;5.92;58.93
59545;BME280;45368;55.002;-1.592;2023-02-19T08:03:43;101566.57;;;6.03;59.03
59545;BME280;45368;55.002;-1.592;2023-02-19T08:06:10;101563.04;;;5.27;60.48
59545;BME280;45368;55.002;-1.592;2023-02-19T08:08:38;101564.65;;;4.70;63.41
59545;BME280;45368;55.002;-1.592;2023-02-19T08:11:06;101563.83;;;4.29;64.22
59545;BME280;45368;55.002;-1.592;2023-02-19T08:13:33;101563.24;;;4.59;63.21
59545;BME280;45368;55.002;-1.592;2023-02-19T08:16:16;101559.70;;;5.00;63.13
59545;BME280;45368;55.002;-1.592;2023-02-19T08:18:49;101560.15;;;4.90;62.34
59545;BME280;45368;55.002;-1.592;2023-02-19T08:21:16;101566.11;;;4.71;62.64
59545;BME280;45368;55.002;-1.592;2023-02-19T08:23:45;101573.71;;;4.57;63.69
59545;BME280;45368;55.002;-1.592;2023-02-19T08:26:12;101579.19;;;3.93;65.75
59545;BME280;45368;55.002;-1.592;2023-02-19T08:28:39;101580.80;;;4.19;65.47
59545;BME280;45368;55.002;-1.592;2023-02-19T08:31:09;101582.29;;;4.25;63.80
59545;BME280;45368;55.002;-1.592;2023-02-19T08:33:38;101575.18;;;4.99;62.50
59545;BME280;45368;55.002;-1.592;2023-02-19T08:36:08;101582.18;;;4.79;61.73
59545;BME280;45368;55.002;-1.592;2023-02-19T08:38:36;101584.50;;;4.94;61.62
59545;BME280;45368;55.002;-1.592;2023-02-19T08:41:04;101574.69;;;4.85;62.89
59545;BME280;45368;55.002;-1.592;2023-02-19T08:43:32;101563.19;;;5.61;61.12
59545;BME280;45368;55.002;-1.592;2023-02-19T08:46:00;101566.28;;;6.35;58.23
59545;BME280;45368;55.002;-1.592;2023-02-19T08:48:27;101563.77;;;6.27;58.66
59545;BME280;45368;55.002;-1.592;2023-02-19T08:50:56;101558.87;;;6.67;58.47
59545;BME280;45368;55.002;-1.592;2023-02-19T08:53:24;101571.94;;;6.65;58.01
59545;BME280;45368;55.002;-1.592;2023-02-19T08:55:51;101570.79;;;6.77;56.41
59545;BME280;45368;55.002;-1.592;2023-02-19T08:58:18;101568.81;;;7.77;55.31
59545;BME280;45368;55.002;-1.592;2023-02-19T09:00:45;101578.08;;;7.11;54.43
59545;BME280;45368;55.002;-1.592;2023-02-19T09:03:13;101584.98;;;6.79;56.41
59545;BME280;45368;55.002;-1.592;2023-02-19T09:05:41;101586.73;;;7.34;55.72
59545;BME280;45368;55.002;-1.592;2023-02-19T09:08:08;101580.33;;;6.85;56.34
59545;BME280;45368;55.002;-1.592;2023-02-19T09:10:36;101575.50;;;7.03;55.74
59545;BME280;45368;55.002;-1.592;2023-02-19T09:13:04;101574.79;;;7.32;55.04
59545;BME280;45368;55.002;-1.592;2023-02-19T09:15:31;101555.52;;;7.41;54.97
59545;BME280;45368;55.002;-1.592;2023-02-19T09:17:59;101560.85;;;7.55;54.75
59545;BME280;45368;55.002;-1.592;2023-02-19T09:20:26;101550.69;;;7.88;54.10
59545;BME280;45368;55.002;-1.592;2023-02-19T09:22:56;101556.90;;;7.12;55.56
59545;BME280;45368;55.002;-1.592;2023-02-19T09:25:24;101557.38;;;6.85;56.95
59545;BME280;45368;55.002;-1.592;2023-02-19T09:27:54;101557.73;;;7.62;55.30
59545;BME280;45368;55.002;-1.592;2023-02-19T09:30:21;101545.58;;;7.67;54.73
59545;BME280;45368;55.002;-1.592;2023-02-19T09:32:49;101530.35;;;7.72;53.80
59545;BME280;45368;55.002;-1.592;2023-02-19T09:35:16;101525.83;;;7.27;55.84
59545;BME280;45368;55.002;-1.592;2023-02-19T09:37:45;101515.87;;;7.44;55.09
59545;BME280;45368;55.002;-1.592;2023-02-19T09:40:12;101509.91;;;6.87;56.95
59545;BME280;45368;55.002;-1.592;2023-02-19T09:42:42;101501.89;;;7.19;55.79
59545;BME280;45368;55.002;-1.592;2023-02-19T09:45:16;101496.90;;;7.14;56.60
59545;BME280;45368;55.002;-1.592;2023-02-19T09:47:45;101501.53;;;7.51;56.54
59545;BME280;45368;55.002;-1.592;2023-02-19T09:50:17;101492.74;;;8.03;55.49
59545;BME280;45368;55.002;-1.592;2023-02-19T09:52:50;101503.24;;;6.98;57.54
59545;BME280;45368;55.002;-1.592;2023-02-19T09:55:27;101507.63;;;8.04;55.85
59545;BME280;45368;55.002;-1.592;2023-02-19T09:57:58;101510.79;;;7.79;56.14
59545;BME280;45368;55.002;-1.592;2023-02-19T10:00:28;101516.90;;;7.83;56.71
59545;BME280;45368;55.002;-1.592;2023-02-19T10:03:02;101525.25;;;7.30;58.54
59545;BME280;45368;55.002;-1.592;2023-02-19T10:05:31;101524.70;;;7.39;58.59
59545;BME280;45368;55.002;-1.592;2023-02-19T10:07:59;101528.23;;;6.69;60.47
59545;BME280;45368;55.002;-1.592;2023-02-19T10:10:32;101526.38;;;7.45;59.53
59545;BME280;45368;55.002;-1.592;2023-02-19T10:13:17;101524.58;;;7.09;60.35
59545;BME280;45368;55.002;-1.592;2023-02-19T10:15:51;101526.74;;;7.23;61.61
59545;BME280;45368;55.002;-1.592;2023-02-19T10:18:23;101523.75;;;6.57;62.05
59545;BME280;45368;55.002;-1.592;2023-02-19T10:20:51;101536.54;;;6.32;63.86
59545;BME280;45368;55.002;-1.592;2023-02-19T10:23:20;101540.00;;;6.15;65.11
59545;BME280;45368;55.002;-1.592;2023-02-19T10:25:51;101538.73;;;6.82;63.33
59545;BME280;45368;55.002;-1.592;2023-02-19T10:28:21;101521.60;;;7.13;61.74
59545;BME280;45368;55.002;-1.592;2023-02-19T10:30:54;101521.19;;;7.38;61.03
59545;BME280;45368;55.002;-1.592;2023-02-19T10:33:22;101517.71;;;7.05;60.57
59545;BME280;45368;55.002;-1.592;2023-02-19T10:35:54;101512.49;;;7.26;61.92
59545;BME280;45368;55.002;-1.592;2023-02-19T10:38:25;101496.36;;;6.90;62.21
59545;BME280;45368;55.002;-1.592;2023-02-19T10:40:59;101491.51;;;6.82;62.92
59545;BME280;45368;55.002;-1.592;2023-02-19T10:43:30;101487.86;;;7.05;62.23
59545;BME280;45368;55.002;-1.592;2023-02-19T10:46:01;101484.91;;;7.15;61.35
59545;BME280;45368;55.002;-1.592;2023-02-19T10:48:31;101490.93;;;7.53;60.60
59545;BME280;45368;55.002;-1.592;2023-02-19T10:51:01;101486.36;;;7.52;60.74
59545;BME280;45368;55.002;-1.592;2023-02-19T10:53:42;101478.74;;;7.03;61.78
59545;BME280;45368;55.002;-1.592;2023-02-19T10:56:12;101473.16;;;7.25;61.38
59545;BME280;45368;55.002;-1.592;2023-02-19T10:58:41;101469.58;;;7.80;60.82
59545;BME280;45368;55.002;-1.592;2023-02-19T11:01:13;101466.12;;;7.74;59.72
59545;BME280;45368;55.002;-1.592;2023-02-19T11:03:41;101467.31;;;8.18;58.51
59545;BME280;45368;55.002;-1.592;2023-02-19T11:06:09;101461.45;;;8.85;57.36
59545;BME280;45368;55.002;-1.592;2023-02-19T11:08:54;101454.25;;;7.90;59.20
59545;BME280;45368;55.002;-1.592;2023-02-19T11:11:27;101456.93;;;7.59;60.52
59545;BME280;45368;55.002;-1.592;2023-02-19T11:13:57;101456.42;;;7.39;61.15
59545;BME280;45368;55.002;-1.592;2023-02-19T11:16:38;101469.36;;;7.25;62.47
59545;BME280;45368;55.002;-1.592;2023-02-19T11:19:20;101468.07;;;6.75;63.04
59545;BME280;45368;55.002;-1.592;2023-02-19T11:21:49;101473.05;;;7.35;61.21
59545;BME280;45368;55.002;-1.592;2023-02-19T11:24:23;101466.48;;;8.33;59.05
59545;BME280;45368;55.002;-1.592;2023-02-19T11:26:52;101455.69;;;7.95;59.92
59545;BME280;45368;55.002;-1.592;2023-02-19T11:29:21;101458.45;;;8.71;59.77
59545;BME280;45368;55.002;-1.592;2023-02-19T11:31:50;101460.34;;;8.35;58.84
59545;BME280;45368;55.002;-1.592;2023-02-19T11:34:27;101465.97;;;8.72;58.31
59545;BME280;45368;55.002;-1.592;2023-02-19T11:37:08;101464.29;;;8.46;58.16
59545;BME280;45368;55.002;-1.592;2023-02-19T11:39:38;101460.53;;;8.02;59.42
59545;BME280;45368;55.002;-1.592;2023-02-19T11:42:24;101465.16;;;7.79;61.21
59545;BME280;45368;55.002;-1.592;2023-02-19T11:45:05;101456.11;;;7.96;60.69
59545;BME280;45368;55.002;-1.592;2023-02-19T11:47:50;101472.04;;;8.02;61.22
59545;BME280;45368;55.002;-1.592;2023-02-19T11:50:28;101463.45;;;7.65;61.77
59545;BME280;45368;55.002;-1.592;2023-02-19T11:53:09;101466.47;;;7.57;61.04
59545;BME280;45368;55.002;-1.592;2023-02-19T11:55:50;101464.12;;;7.71;61.10
59545;BME280;45368;55.002;-1.592;2023-02-19T11:59:01;101470.34;;;8.12;60.08
59545;BME280;45368;55.002;-1.592;2023-02-19T12:02:17;101464.05;;;8.25;59.20
59545;BME280;45368;55.002;-1.592;2023-02-19T12:04:56;101490.21;;;7.90;60.96
59545;BME280;45368;55.002;-1.592;2023-02-19T12:07:43;101483.86;;;7.84;60.66
59545;BME280;45368;55.002;-1.592;2023-02-19T12:10:20;101472.39;;;8.20;60.72
59545;BME280;45368;55.002;-1.592;2023-02-19T12:13:01;101474.12;;;8.36;59.36
59545;BME280;45368;55.002;-1.592;2023-02-19T12:16:14;101481.35;;;8.79;59.38
59545;BME280;45368;55.002;-1.592;2023-02-19T12:19:58;101472.51;;;8.67;59.31
59545;BME280;45368;55.002;-1.592;2023-02-19T12:22:30;101456.50;;;8.61;59.04
59545;BME280;45368;55.002;-1.592;2023-02-19T12:25:25;101456.72;;;8.84;58.86
59545;BME280;45368;55.002;-1.592;2023-02-19T12:28:08;101449.99;;;8.90;58.38
59545;BME280;45368;55.002;-1.592;2023-02-19T12:30:56;101435.56;;;8.91;57.51
59545;BME280;45368;55.002;-1.592;2023-02-19T12:33:54;101426.55;;;9.55;56.01
59545;BME280;45368;55.002;-1.592;2023-02-19T12:36:33;101425.39;;;9.85;55.00
59545;BME280;45368;55.002;-1.592;2023-02-19T12:39:07;101418.47;;;9.50;55.93
59545;BME280;45368;55.002;-1.592;2023-02-19T12:41:43;101434.81;;;9.25;56.37
59545;BME280;45368;55.002;-1.592;2023-02-19T12:44:17;101445.73;;;9.52;55.86
59545;BME280;45368;55.002;-1.592;2023-02-19T12:46:50;101431.97;;;9.48;56.50
59545;BME280;45368;55.002;-1.592;2023-02-19T12:49:24;101430.73;;;9.10;57.27
59545;BME280;45368;55.002;-1.592;2023-02-19T12:51:56;101430.68;;;8.95;57.40
59545;BME280;45368;55.002;-1.592;2023-02-19T12:54:28;101416.35;;;9.19;56.29
59545;BME280;45368;55.002;-1.592;2023-02-19T12:57:00;101409.97;;;9.06;56.81
59545;BME280;45368;55.002;-1.592;2023-02-19T12:59:32;101407.41;;;9.18;56.44
59545;BME280;45368;55.002;-1.592;2023-02-19T13:02:08;101402.64;;;9.34;56.01
59545;BME280;45368;55.002;-1.592;2023-02-19T13:04:44;101391.56;;;9.29;55.03
59545;BME280;45368;55.002;-1.592;2023-02-19T13:07:17;101378.58;;;8.61;57.52
59545;BME280;45368;55.002;-1.592;2023-02-19T13:09:49;101371.00;;;9.35;55.25
59545;BME280;45368;55.002;-1.592;2023-02-19T13:12:22;101354.70;;;9.16;56.22